x

8577018 - Cove Point Lng Pier, Md (covm2) Weather Station

7:30am - Fri 24th Mar 2017 All times are EDT. -4 hours from GMT.

  • Wind
    17mph, 21mph gusts
  • Air Temp 37°f
  • Sea Pressure 1033mb
  • 8577018 - Cove Point Lng Pier, Md
  • 8577018 - Cove Point Lng Pier, Md

More Historic Weather Station data

Upgrade to MSW Pro to gain access to the past 30 days of data for over 8000 Wavebouys and Weather Stations around the globe.

Join Pro

Comparision Forecast

View Surf forecast
   
Fri 03/24 7:30am 17 21 mph 1033mb 37f
7:24am 17 21 mph 1033mb 37f
7:18am 17 21 mph 1033mb 37f
7:12am 16 20 mph 1033mb 37f
7:06am 17 22 mph 1033.1mb 37f
7:00am 16 21 mph 1033.1mb 37f
6:54am 16 21 mph 1033.2mb 37f
6:48am 18 21 mph 1033.3mb 38f
6:42am 16 20 mph 1033.2mb 37f
6:36am 14 16 mph 1033.2mb 37f
6:30am 14 16 mph 1033.4mb 37f
6:24am 15 17 mph 1033.4mb 37f
6:18am 14 17 mph 1033.4mb 37f
6:12am 14 17 mph 1033.4mb 37f
6:06am 14 15 mph 1033.5mb 37f
6:00am 14 18 mph 1033.5mb 38f
5:54am 14 18 mph 1033.4mb 38f
5:48am 16 20 mph 1033.4mb 38f
5:42am 15 20 mph 1033.4mb 38f
5:36am 17 20 mph 1033.4mb 38f
5:30am 17 21 mph 1033.4mb 38f
5:24am 17 22 mph 1033.5mb 38f
5:18am 15 17 mph 1033.5mb 38f
5:12am 15 18 mph 1033.5mb 38f
5:06am 14 16 mph 1033.5mb 38f
5:00am 14 17 mph 1033.5mb 38f
4:54am 15 17 mph 1033.6mb 38f
4:48am 15 16 mph 1033.7mb 38f
4:42am 13 15 mph 1033.7mb 38f
4:36am 11 14 mph 1033.8mb 38f
4:30am 13 18 mph 1033.8mb 38f
4:24am 15 17 mph 1033.8mb 38f
4:18am 16 20 mph 1033.8mb 38f
4:12am 15 17 mph 1033.9mb 38f
4:06am 15 18 mph 1033.8mb 38f
4:00am 15 17 mph 1033.8mb 38f
3:54am 15 16 mph 1033.8mb 38f
3:48am 14 16 mph 1033.8mb 38f
3:42am 13 17 mph 1033.9mb 38f
3:36am 15 17 mph 1034mb 38f
3:30am 15 17 mph 1034mb 38f
3:24am 15 18 mph 1034mb 38f
3:18am 15 17 mph 1034mb 38f
3:12am 14 16 mph 1034.1mb 38f
3:06am 14 18 mph 1034.1mb 38f
3:00am 14 17 mph 1034.1mb 38f
2:54am 13 16 mph 1034.2mb 38f
2:48am 14 17 mph 1034.3mb 38f
2:42am 14 16 mph 1034.4mb 38f
2:36am 13 16 mph 1034.6mb 38f
2:30am 14 17 mph 1034.8mb 38f
2:24am 15 17 mph 1035mb 38f
2:18am 15 17 mph 1035.1mb 39f
2:12am 14 20 mph 1035.1mb 39f
2:06am 15 20 mph 1035.2mb 39f
2:00am 14 17 mph 1035.2mb 39f
1:54am 14 16 mph 1035.3mb 39f
1:48am 13 17 mph 1035mb -
1:42am 15 18 mph 1034.8mb -
1:36am 16 21 mph 1034.8mb -
1:30am 18 24 mph 1034.6mb 40f
1:24am 22 26 mph 1034.7mb 40f
1:18am 24 26 mph 1034.7mb 40f
1:12am 22 24 mph 1034.7mb 40f
1:06am 23 25 mph 1034.7mb 40f
1:00am 22 24 mph 1034.8mb 40f
12:54am 22 23 mph 1034.9mb 40f
12:48am 21 23 mph 1035mb 40f
12:42am 21 22 mph 1035mb 40f
12:36am 21 22 mph 1035mb 40f
12:30am 20 22 mph 1035.1mb 40f
12:24am 18 23 mph 1035.3mb 40f
12:18am 20 22 mph 1035.3mb 40f
12:12am 18 21 mph 1035.4mb 40f
12:06am 17 20 mph 1035.6mb 40f
12:00am 16 18 mph 1035.7mb 40f
Thu 03/23 11:54pm 16 18 mph 1035.6mb 40f
11:48pm 14 18 mph 1035.6mb 40f
11:42pm 15 17 mph 1035.6mb 40f
11:36pm 13 14 mph 1035.7mb 39f
11:30pm 11 14 mph 1035.8mb 39f
11:24pm 11 13 mph 1035.8mb 39f
11:18pm 11 15 mph 1035.9mb 39f
11:12pm 11 14 mph 1036.1mb 39f
11:06pm 11 16 mph 1036mb 40f
11:00pm 15 16 mph 1036mb 40f
10:54pm 14 15 mph 1036.2mb 40f
10:48pm 14 15 mph 1036.3mb 40f
10:42pm 14 16 mph 1036.1mb 40f
10:36pm 16 17 mph 1035.9mb 40f
10:30pm 15 16 mph 1035.6mb 40f
10:24pm 13 15 mph 1035.6mb 40f
10:18pm 14 16 mph 1035.5mb 39f
10:12pm 14 16 mph 1035.5mb 39f
10:06pm 13 14 mph 1035.5mb 39f
10:00pm 13 14 mph 1035.4mb 38f
9:54pm 13 15 mph 1035.4mb 38f
9:48pm 13 20 mph 1035.3mb 39f
9:42pm 17 20 mph 1035.2mb 40f
9:36pm 17 20 mph 1035.2mb 40f
9:30pm 17 20 mph 1035.2mb 40f
9:24pm 17 18 mph 1035.2mb 39f
9:18pm 17 18 mph 1035.2mb 40f
9:12pm 18 20 mph 1035.1mb 40f
9:06pm 15 17 mph 1035.1mb 40f
9:00pm 15 16 mph 1035mb 40f
8:54pm 15 17 mph 1035mb 40f
8:48pm 15 17 mph 1035mb 40f
8:42pm 15 17 mph 1035mb 40f
8:36pm 15 17 mph 1035mb 40f
8:30pm 15 16 mph 1035.1mb 40f
8:24pm 15 16 mph 1034.9mb 40f
8:18pm 14 15 mph 1035mb 40f
8:12pm 14 16 mph 1035mb 40f
8:06pm 15 16 mph 1035.1mb 40f
8:00pm 14 16 mph 1035.1mb 40f
7:54pm 14 16 mph 1035.2mb 40f
7:48pm 14 15 mph 1035.1mb 40f
7:42pm 14 16 mph 1035.1mb 40f
7:36pm 13 16 mph 1035.1mb 40f
7:30pm 13 14 mph 1035.1mb 40f
7:24pm 11 14 mph 1035.1mb 40f
7:18pm 13 14 mph 1035.1mb 40f
7:12pm 11 13 mph 1035.1mb 40f
7:06pm 10 11 mph 1035.1mb 40f
7:00pm 10 11 mph 1035.1mb 40f
6:54pm 10 11 mph 1035.1mb 40f
6:48pm 10 11 mph 1035.1mb 40f
6:42pm 9 10 mph 1035.1mb 40f
6:36pm 9 10 mph 1035.1mb 40f
6:30pm 10 11 mph 1035.1mb 39f
6:24pm 10 11 mph 1035.1mb 39f
6:18pm 10 11 mph 1035.1mb 39f
6:12pm 10 13 mph 1035.2mb 39f
6:06pm 11 13 mph 1035.3mb 39f
6:00pm 11
mph
1035.2mb 39f
5:54pm 10 11 mph 1035.2mb 39f
5:48pm 10 11 mph 1035.3mb 39f
5:42pm 10 11 mph 1035.4mb 39f
5:36pm 10
mph
1035.4mb 39f
5:30pm 9 11 mph 1035.4mb 38f
5:24pm 10 11 mph 1035.5mb 38f
5:18pm 10 11 mph 1035.5mb 38f
5:12pm 10 11 mph 1035.5mb 38f
5:06pm 11 13 mph 1035.5mb 38f
5:00pm 11 13 mph 1035.6mb 37f
4:54pm 11 13 mph 1035.7mb 37f
4:48pm 11 13 mph 1035.8mb 37f
4:42pm 10 13 mph 1035.9mb 37f
4:36pm 11 13 mph 1036mb 37f
4:30pm 10 11 mph 1036mb 37f
4:24pm 10 13 mph 1036.1mb 37f
4:18pm 9 11 mph 1036.2mb 37f
4:12pm 9
mph
1036.3mb 37f
4:06pm 8 10 mph 1036.3mb 37f
4:00pm 8 9 mph 1036.3mb 36f
3:54pm 6 8 mph 1036.3mb 36f
3:48pm 6 7 mph 1036.3mb 36f
3:42pm 6 7 mph 1036.5mb 36f
3:36pm 6 7 mph 1036.5mb 35f
3:30pm 6 8 mph 1036.6mb 35f
3:24pm 6 7 mph 1036.8mb 35f
3:18pm 6 7 mph 1036.8mb 35f
3:12pm 5 7 mph 1036.9mb 34f
3:06pm 5 7 mph 1037.1mb 34f
3:00pm 5 6 mph 1037.2mb 34f
2:54pm 5 7 mph 1037.4mb 34f
2:48pm 5 6 mph 1037.4mb 34f
2:42pm 5 7 mph 1037.5mb 34f
2:36pm 5 6 mph 1037.6mb 34f
2:30pm 5 6 mph 1037.6mb 33f
2:24pm 5 7 mph 1037.7mb 33f
2:18pm 5 6 mph 1037.8mb 34f
2:12pm 6
mph
1037.8mb 33f
2:06pm 6 8 mph 1037.8mb 33f
2:00pm 6 8 mph 1037.9mb 33f
1:54pm 6 7 mph 1038mb 33f
1:48pm 5 6 mph 1038.1mb 33f
1:42pm 5 7 mph 1038.2mb 33f
1:36pm 5 6 mph 1038.2mb 33f
1:30pm 5 7 mph 1038.3mb 33f
1:24pm 3 7 mph 1038.3mb 33f
1:18pm 5 7 mph 1038.4mb 33f
1:12pm 6 8 mph 1038.4mb 33f
1:06pm 6 8 mph 1038.5mb 32f
1:00pm 6 9 mph 1038.5mb 32f
12:54pm 6 9 mph 1038.6mb 33f
12:48pm 7 9 mph 1038.7mb 32f
12:42pm 5 10 mph 1038.7mb 33f
12:36pm 3 9 mph 1038.8mb 33f
12:30pm 8 9 mph 1038.9mb 32f
12:24pm 6 9 mph 1039mb 32f
12:18pm 7 11 mph 1039mb 32f
12:12pm 7 9 mph 1039mb 31f
12:06pm 7 10 mph 1039mb 32f
12:00pm 7 10 mph 1039.1mb 32f
11:54am 7 13 mph 1039.1mb 31f
11:48am 9 13 mph 1039.2mb 31f
11:42am 9 11 mph 1039.3mb 31f
11:36am 6 11 mph 1039.4mb 31f
11:30am 7 11 mph 1039.5mb 31f
11:24am 8 13 mph 1039.5mb 31f
11:18am 7 10 mph 1039.6mb 31f
11:12am 7 11 mph 1039.5mb 31f
11:06am 8 11 mph 1039.6mb 31f
11:00am 7 11 mph 1039.6mb 31f
10:54am 9 11 mph 1039.5mb 30f
10:48am 9 14 mph 1039.5mb 31f
10:42am 9 11 mph 1039.4mb 31f
10:36am 10 13 mph 1039.4mb 30f
10:30am 11 16 mph 1039.4mb 30f
10:24am 10 16 mph 1039.4mb 30f
10:18am 10 15 mph 1039.3mb 30f
10:12am 11 15 mph 1039.3mb 30f
10:06am 14 16 mph 1039.3mb 30f
10:00am 11 15 mph 1039.2mb 30f
9:54am 14 17 mph 1039.2mb 30f
9:48am 15 18 mph 1039.1mb 30f
9:42am 13 18 mph 1039mb 30f
9:36am 11 18 mph 1038.9mb 30f
9:30am 14 20 mph 1038.8mb 30f
9:24am 15 20 mph 1038.7mb 30f
9:18am 15 21 mph 1038.7mb 30f
9:12am 16 22 mph 1038.8mb 30f
9:06am 16 20 mph 1038.8mb 30f
9:00am 13 20 mph 1038.8mb 30f
8:54am 13 17 mph 1038.7mb 30f
8:48am 15 18 mph 1038.6mb 30f
8:42am 14 20 mph 1038.6mb 29f
8:36am 14 22 mph 1038.6mb 29f
8:30am 16 22 mph 1038.5mb 29f
8:24am 13 18 mph 1038.5mb 29f
8:18am 15 20 mph 1038.5mb 29f
8:12am 16 18 mph 1038.3mb 29f
8:06am 13 18 mph 1038.2mb 29f
8:00am 15 20 mph 1038.2mb 29f
7:54am 16 21 mph 1038mb 29f
7:48am 15 21 mph 1037.9mb 29f
7:42am 16 21 mph 1037.8mb 29f
7:36am 15 21 mph 1037.7mb 29f
7:30am 16 21 mph 1037.6mb 29f
7:24am 16 22 mph 1037.5mb 29f
7:18am 16 20 mph 1037.5mb 29f
7:12am 15 21 mph 1037.4mb 29f
7:06am 13 18 mph 1037.3mb 29f
7:00am 14 17 mph 1037.3mb 29f
6:54am 14 17 mph 1037.3mb 29f
6:48am 15 18 mph 1037.1mb 29f
6:42am 14 17 mph 1037.1mb 29f
6:36am 13 16 mph 1037mb 30f
6:30am 14 16 mph 1036.9mb 29f
6:24am 13 18 mph 1036.7mb 29f
6:18am 13 17 mph 1036.7mb 30f
6:12am 11 17 mph 1036.5mb 30f
6:06am 14 17 mph 1036.4mb 30f
6:00am 14 17 mph 1036.3mb 30f
5:54am 16 20 mph 1036.1mb 30f
5:48am 14 18 mph 1035.9mb 30f
5:42am 13 16 mph 1035.9mb 31f
5:36am 13 17 mph 1035.7mb 30f
5:30am 14 18 mph 1035.6mb 31f
5:24am 14 18 mph 1035.5mb 31f
5:18am 15 20 mph 1035.4mb 31f
5:12am 14 20 mph 1035.3mb 31f
5:06am 16 20 mph 1035.2mb 31f
5:00am 16 21 mph 1035.1mb 31f
4:54am 15 22 mph 1035mb 31f
4:48am 16 21 mph 1035mb 31f
4:42am 16 22 mph 1035mb 31f
4:36am 17 23 mph 1035mb 31f
4:30am 18 23 mph 1034.9mb 31f
4:24am 15 20 mph 1034.8mb 31f
4:18am 13 18 mph 1034.8mb 31f
4:12am 11 17 mph 1034.7mb 31f
4:06am 11 17 mph 1034.6mb 31f
4:00am 14 16 mph 1034.5mb 31f
3:54am 14 20 mph 1034.5mb 31f
3:48am 14 18 mph 1034.4mb 31f
3:42am 15 18 mph 1034.3mb 31f
3:36am 14 18 mph 1034.2mb 32f
3:30am 15 18 mph 1034.1mb 32f
3:24am 13 18 mph 1034mb 32f
3:18am 14 20 mph 1034mb 32f
3:12am 16 22 mph 1034mb 32f
3:06am 17 22 mph 1034mb 32f
3:00am 15 21 mph 1033.9mb 32f
2:54am 15 21 mph 1033.7mb 32f
2:48am 17 20 mph 1033.8mb -
2:42am 15 18 mph 1033.8mb -
2:36am 14 18 mph 1033.6mb -
2:30am 14 22 mph 1033.4mb 33f
2:24am 16 20 mph 1033.3mb 33f
2:18am 16 20 mph 1033.4mb 33f
2:12am 15 20 mph 1033.3mb 33f
2:06am 16 24 mph 1033mb 33f
2:00am 18 22 mph 1032.9mb 33f
1:54am 16 21 mph 1033mb 34f
1:48am 17 22 mph 1033.1mb -
1:42am 18 24 mph 1032.9mb -
1:36am 18 24 mph 1032.8mb -
1:30am 18 23 mph 1032.9mb 34f
1:24am 18 24 mph 1033.1mb 34f
1:18am 18 20 mph 1033mb 34f
1:12am 16 22 mph 1032.9mb 34f
1:06am 16 22 mph 1032.8mb 35f
1:00am 16 22 mph 1032.7mb 35f
12:54am 14 22 mph 1032.8mb 35f
12:48am 15 22 mph 1032.7mb 35f
12:42am 15 18 mph 1032.5mb 35f
12:36am 16 20 mph 1032.5mb 35f
12:30am 20 23 mph 1032.6mb 35f
12:24am 15 20 mph 1032.7mb 35f
12:18am 16 18 mph 1032.6mb 35f
12:12am 17 21 mph 1032.5mb 36f
12:06am 16 18 mph 1032.5mb 36f
12:00am 15 18 mph 1032.5mb 36f
Wed 03/22 11:54pm 14 22 mph 1032.5mb 36f
11:48pm 14 20 mph 1032.4mb 36f
11:42pm 16 18 mph 1032.3mb 36f
11:36pm 16 20 mph 1032.4mb 37f
11:30pm 17 20 mph 1032.4mb 36f
11:24pm 16 20 mph 1032.3mb 37f
11:18pm 18 21 mph 1032.2mb 37f
11:12pm 13 20 mph 1032.1mb 37f
11:06pm 16 20 mph 1032mb 37f
11:00pm 15 18 mph 1032mb 37f
10:54pm 16 20 mph 1032mb 37f
10:48pm 16 20 mph 1031.8mb 38f
10:42pm 15 18 mph 1031.7mb 39f
10:36pm 16 20 mph 1031.6mb 39f
10:30pm 18 21 mph 1031.5mb 39f
10:24pm 16 22 mph 1031.4mb 41f
10:18pm 15 23 mph 1031.3mb 41f
10:12pm 15 23 mph 1031.2mb 41f
10:06pm 18 26 mph 1031.1mb 41f
10:00pm 16 23 mph 1031.1mb 41f
9:54pm 15 24 mph 1031mb 42f
9:48pm 21 24 mph 1030.9mb 42f
9:42pm 20 23 mph 1030.8mb 42f
9:36pm 22 24 mph 1030.7mb 42f
9:30pm 22 25 mph 1030.6mb 42f
9:24pm 24 25 mph 1030.5mb 42f
9:18pm 21 28 mph 1030.4mb 42f
9:12pm 22 25 mph 1030.3mb 42f
9:06pm 18 24 mph 1030.2mb 42f
9:00pm 16 26 mph 1030.2mb 42f
8:54pm 23 28 mph 1029.9mb 42f
8:48pm 22 28 mph 1029.7mb 42f
8:42pm 23 28 mph 1029.6mb 42f
8:36pm 21 26 mph 1029.5mb 43f
8:30pm 22 28 mph 1029.3mb 43f
8:24pm 22 26 mph 1029.2mb 43f
8:18pm 26 29 mph 1029mb 43f
8:12pm 20 25 mph 1028.9mb 43f
8:06pm 22 26 mph 1028.7mb 43f
8:00pm 20 25 mph 1028.6mb 43f
7:54pm 22 28 mph 1028.5mb 43f
7:48pm 23 26 mph 1028.4mb 43f
7:42pm 22 26 mph 1028.3mb 43f
7:36pm 23 26 mph 1028.3mb 43f
7:30pm 24 29 mph 1028.1mb 43f
7:24pm 24 26 mph 1028mb 44f
7:18pm 25 28 mph 1027.8mb 44f
7:12pm 25 28 mph 1027.7mb 44f
7:06pm 18 21 mph 1027.7mb 44f
7:00pm 11 24 mph 1027.7mb 42f
6:54pm 21 25 mph 1027.6mb 42f
6:48pm 21 25 mph 1027.4mb 43f
6:42pm 21 25 mph 1027.3mb 42f
6:36pm 17 23 mph 1027.2mb 43f
6:30pm 17 28 mph 1027mb 43f
6:24pm 21 28 mph 1026.9mb 42f
6:18pm 22 25 mph 1026.8mb 42f
6:12pm 22 28 mph 1026.5mb 43f
6:06pm 20 24 mph 1026.5mb 42f
6:00pm 22 25 mph 1026.5mb 42f
5:54pm 21 25 mph 1026.3mb 43f
5:48pm 22 26 mph 1026.2mb 43f
5:42pm 20 25 mph 1026.1mb 43f
5:36pm 23 28 mph 1026mb 43f
5:30pm 22 26 mph 1025.9mb 42f
5:24pm 20 26 mph 1025.9mb 42f
5:18pm 24 28 mph 1025.8mb 42f
5:12pm 23 29 mph 1025.7mb 42f
5:06pm 21 29 mph 1025.7mb 42f
4:54pm 24 29 mph 1025.6mb 42f
4:48pm 22 24 mph 1025.6mb 42f
4:42pm 23 28 mph 1025.5mb 42f
4:36pm 24 29 mph 1025.3mb 42f
4:30pm 23 28 mph 1025.3mb 42f
4:24pm 25 29 mph 1025.2mb 42f
4:18pm 22 26 mph 1025.1mb 42f
4:12pm 22 24 mph 1025.1mb 42f
4:06pm 21 25 mph 1025.1mb 42f
4:00pm 18 22 mph 1025.2mb 42f
3:54pm 17 25 mph 1025.1mb 42f
3:48pm 22 25 mph 1024.9mb 42f
3:42pm 18 22 mph 1024.9mb 42f
3:36pm 20 24 mph 1024.9mb 42f
3:30pm 20 24 mph 1024.8mb 43f
3:24pm 22 28 mph 1024.8mb 43f
3:18pm 20 24 mph 1024.7mb 43f
3:12pm 18 25 mph 1024.8mb 43f
3:06pm 14 26 mph 1024.8mb 43f
3:00pm 18 26 mph 1024.8mb 43f
2:54pm 20 28 mph 1024.7mb 43f
2:48pm 17 28 mph 1024.5mb 43f
2:42pm 20 25 mph 1024.6mb 42f
2:36pm 21 26 mph 1024.6mb 42f
2:30pm 24 28 mph 1024.6mb 42f
2:24pm 21 26 mph 1024.6mb 42f
2:18pm 22 28 mph 1024.5mb 42f
2:12pm 18 25 mph 1024.6mb 42f
2:06pm 20 28 mph 1024.6mb 42f
2:00pm 20 25 mph 1024.6mb 42f
1:54pm 17 23 mph 1024.6mb 42f
1:48pm 21 26 mph 1024.5mb 42f
1:42pm 16 25 mph 1024.5mb 42f
1:36pm 18 23 mph 1024.6mb 42f
1:30pm 15 23 mph 1024.6mb 42f
1:24pm 20 24 mph 1024.5mb 42f
1:18pm 14 23 mph 1024.5mb 42f
1:12pm 15 23 mph 1024.4mb 42f
1:06pm 15 29 mph 1024.3mb 42f
1:00pm 23 28 mph 1024.2mb 42f
12:54pm 22 29 mph 1024.3mb 41f
12:48pm 22 31 mph 1024.1mb 41f
12:42pm 22 30 mph 1024mb 41f
12:36pm 21 30 mph 1023.9mb 42f
12:30pm 18 29 mph 1024mb 41f
12:24pm 18 28 mph 1024.1mb 41f
12:18pm 22 29 mph 1024mb 41f
12:12pm 20 28 mph 1024mb 41f
12:06pm 18 26 mph 1023.8mb 41f
12:00pm 17 28 mph 1023.7mb 41f
11:54am 20 28 mph 1023.7mb 41f
11:48am 16 29 mph 1023.6mb 41f
11:42am 18 25 mph 1023.5mb 41f
11:36am 21 29 mph 1023.5mb 41f
11:30am 24 32 mph 1023.3mb 41f
11:24am 22 29 mph 1023.2mb 41f
11:18am 20 32 mph 1023.1mb 41f
11:12am 24 37 mph 1023.1mb 41f
11:06am 25 32 mph 1023mb 40f
11:00am 23 34 mph 1022.9mb 40f
10:54am 30 36 mph 1022.7mb 40f
10:48am 29 36 mph 1022.6mb 40f
10:42am 33 38 mph 1022.4mb 40f
10:36am 23 32 mph 1022.4mb 41f
10:30am 26 34 mph 1022.2mb 41f
10:24am 25 33 mph 1022.1mb 41f
10:18am 22 32 mph 1021.9mb 41f
10:12am 26 34 mph 1021.8mb 41f
10:06am 22 36 mph 1021.6mb 41f
10:00am 24 36 mph 1021.6mb 41f
9:54am 22 34 mph 1021.4mb 41f
9:48am 18 31 mph 1021.3mb 42f
9:42am 26 34 mph 1021.2mb 41f
9:36am 25 33 mph 1021mb 42f
9:30am 22 31 mph 1021mb 42f
9:24am 21 34 mph 1020.8mb 42f
9:18am 20 34 mph 1020.7mb 42f
9:12am 25 32 mph 1020.6mb 42f
9:06am 30 34 mph 1020.3mb 43f
9:00am 34 38 mph 1020.1mb 43f
8:54am 34 39 mph 1019.8mb 43f
8:48am 36 40 mph 1019.5mb 43f
8:42am 32 38 mph 1019.4mb 44f
8:36am 32 37 mph 1019.3mb 45f
8:30am 20 29 mph 1019.2mb 44f
8:24am 21 30 mph 1019mb 45f
8:18am 20 31 mph 1018.7mb 45f
8:12am 25 34 mph 1018.4mb 45f
8:06am 28 33 mph 1018.1mb 45f
8:00am 22 32 mph 1018mb 46f
7:54am 28 40 mph 1017.8mb 46f
7:48am 34 43 mph 1017.4mb 47f
7:42am 37 43 mph 1017.2mb 47f
7:36am 26 31 mph 1017.2mb 47f
7:30am 28 33 mph 1017.1mb 47f
7:24am 28 34 mph 1016.9mb 48f
7:18am 28 33 mph 1016.7mb 48f
7:12am 23 28 mph 1016.7mb 48f
7:06am 28 32 mph 1016.5mb 48f
7:00am 29 33 mph 1016.4mb 49f
6:54am 28 32 mph 1016.2mb 50f
6:48am 24 30 mph 1016.1mb 50f
6:42am 22 29 mph 1016mb 50f
6:36am 16 21 mph 1016mb 49f
6:30am 17 21 mph 1015.8mb 49f
6:24am 16 23 mph 1015.7mb 48f
6:18am 18 23 mph 1015.6mb 49f
6:12am 14 18 mph 1015.5mb 50f
6:06am 15 17 mph 1015.1mb 51f
6:00am 15 16 mph 1015.1mb 52f
5:54am 14 16 mph 1015mb 52f
5:48am 14
mph
1014.9mb 52f
5:42am 13 15 mph 1014.8mb 53f
5:36am 11 14 mph 1014.7mb 53f
5:30am 11 14 mph 1014.5mb 54f
5:24am 11 13 mph 1014.5mb 54f
5:18am 11 13 mph 1014.4mb 54f
5:12am 13 15 mph 1014.3mb 54f
5:06am 11 14 mph 1014.3mb 54f
5:00am 10 11 mph 1014.2mb 53f
4:54am 9 11 mph 1014mb 53f
4:48am 8 11 mph 1014mb 53f
4:42am 9 14 mph 1013.9mb 53f
4:36am 10 13 mph 1013.9mb 53f
4:30am 11 15 mph 1013.9mb 53f
4:24am 11 15 mph 1013.8mb 53f
4:18am 10 13 mph 1013.8mb 53f
4:12am 10 14 mph 1013.7mb 53f
4:06am 11 14 mph 1013.8mb 53f
4:00am 11 15 mph 1013.7mb 54f
3:54am 15 16 mph 1013.7mb 54f
3:48am 16 17 mph 1013.6mb 54f
3:42am 16 18 mph 1013.5mb 55f
3:36am 16 17 mph 1013.4mb 54f
3:30am 16 17 mph 1013.3mb 55f
3:24am 15 16 mph 1013.2mb 55f
3:18am 15 16 mph 1013.1mb 55f
3:12am 13 16 mph 1013.1mb 56f
3:06am 16
mph
1013.1mb 56f
3:00am 16 17 mph 1013.1mb 56f
2:54am 16
mph
1013.2mb 56f
2:48am 16 17 mph 1013.3mb -
2:42am 15 17 mph 1013.3mb -
2:36am 16 18 mph 1013.3mb -
2:30am 17 18 mph 1013.4mb 56f
2:24am 16 18 mph 1013.5mb 56f
2:18am 14 18 mph 1013.4mb 56f
2:12am 15 17 mph 1013.5mb 56f
2:06am 15 20 mph 1013.6mb 56f
2:00am 14 17 mph 1013.5mb 56f
1:54am 13 17 mph 1013.5mb 56f
1:48am 14 21 mph - -
1:42am 13 17 mph - -
1:36am 8 11 mph - -
1:30am 8 13 mph 1013.7mb 56f
1:24am 10 13 mph 1013.7mb 55f
1:18am 11 13 mph 1013.9mb 55f
1:12am 10 13 mph 1013.9mb 55f
1:06am 8 11 mph 1013.9mb 55f
1:00am 8 10 mph 1013.8mb 55f
12:54am 8 10 mph 1013.9mb 55f
12:48am 8 11 mph 1013.9mb 55f
12:42am 7 9 mph 1013.9mb 54f
12:36am 5 8 mph 1013.8mb 54f
12:30am 7 9 mph 1013.6mb 55f
12:24am 6 8 mph 1013.8mb 54f
12:18am 6 9 mph 1013.8mb 54f
12:12am 8 10 mph 1014mb 54f
12:06am 8 11 mph 1014.1mb 54f
12:00am 11 13 mph 1014.3mb 54f
Tue 03/21 11:54pm 10 11 mph 1014.3mb 53f
11:48pm 11 13 mph 1014.3mb 53f
11:42pm 11 13 mph 1014.4mb 53f
11:36pm 9 10 mph 1014.2mb 53f
11:30pm 9 10 mph 1014.4mb 54f
11:24pm 8 11 mph 1014.4mb 54f
11:18pm 11
mph
1014.5mb 53f
11:12pm 11 13 mph 1014.6mb 53f
11:06pm 9 10 mph 1014.8mb 53f
11:00pm 9 11 mph 1014.9mb 54f
10:54pm 10 11 mph 1015.1mb 54f
10:48pm 10
mph
1014.9mb 54f
10:42pm 9
mph
1014.9mb 53f
10:36pm 8 10 mph 1014.8mb 53f
10:30pm 9 10 mph 1014.9mb 53f
10:24pm 10 11 mph 1014.9mb 53f
10:18pm 9 11 mph 1014.9mb 54f
10:12pm 10 11 mph 1014.9mb 53f
10:06pm 10 13 mph 1014.8mb 53f
10:00pm 9 10 mph 1014.6mb 53f
9:54pm 6 9 mph 1014.6mb 53f
9:48pm 6 9 mph 1014.6mb 53f
9:42pm 7 8 mph 1014.8mb 52f
9:36pm 6 7 mph 1014.6mb 52f
9:30pm 6 7 mph 1014.7mb 52f
9:24pm 3 5 mph 1014.8mb 52f
9:18pm 5 7 mph 1014.8mb 53f
9:12pm 3 8 mph 1014.6mb 53f
9:06pm 5
mph
1014.5mb 52f
9:00pm 5 6 mph 1014.4mb 52f
8:54pm 6 7 mph 1014.3mb 52f
8:48pm 7 8 mph 1014.5mb 53f
8:42pm 6 8 mph 1014.5mb 53f
8:36pm 3 5 mph 1014.5mb 52f
8:30pm 2 7 mph 1014.5mb 52f
8:24pm 5 6 mph 1014.4mb 52f
8:18pm 3 6 mph 1014.3mb 51f
8:12pm 6 7 mph 1014.2mb 51f
8:06pm 7 8 mph 1014.2mb 51f
8:00pm 7 8 mph 1014.2mb 51f
7:54pm 6 7 mph 1014.2mb 51f
7:48pm 7
mph
1014.3mb 51f
7:42pm 7
mph
1014.4mb 51f
7:36pm 7
mph
1014.4mb 51f
7:30pm 7 8 mph 1014.3mb 51f
7:24pm 8 10 mph 1014.2mb 51f
7:18pm 10 11 mph 1014mb 51f
7:12pm 9 10 mph 1014.1mb 52f
7:06pm 9 10 mph 1013.9mb 52f
7:00pm 9 11 mph 1013.9mb 52f
6:54pm 10 11 mph 1014mb 52f
6:48pm 10 11 mph 1013.9mb 52f
6:42pm 9
mph
1013.9mb 52f
6:36pm 9
mph
1013.8mb 52f
6:30pm 9 10 mph 1013.9mb 53f
6:24pm 9 10 mph 1013.9mb 53f
6:18pm 10
mph
1014mb 52f
6:12pm 9 10 mph 1013.9mb 52f
6:06pm 9 11 mph 1013.9mb 51f
6:00pm 7 10 mph 1013.9mb 51f
5:54pm 5 6 mph 1013.9mb 50f
5:48pm 1 2 mph 1013.9mb 49f
5:42pm 2
mph
1013.8mb 49f
5:36pm  -  2 mph 1013.8mb 49f
5:30pm  -  2 mph 1013.8mb 50f
5:24pm 1 2 mph 1013.7mb 50f
5:18pm  -  1 mph 1013.8mb 51f
5:12pm  -  1 mph 1013.8mb 51f
5:06pm  -  2 mph 1013.9mb 50f
5:00pm 2 3 mph 1013.9mb 50f
4:54pm 1 2 mph 1013.9mb 50f
4:48pm 1 3 mph 1014mb 49f
4:42pm 2 3 mph 1014mb 49f
4:36pm  -  2 mph 1014mb 50f
4:30pm 1 2 mph 1014mb 49f
4:24pm  -  1 mph 1014.1mb 50f
4:18pm  -  2 mph 1014.1mb 50f
4:12pm  -  1 mph 1014.1mb 51f
4:06pm  -  1 mph 1014.1mb 50f
4:00pm  -  1 mph 1014.1mb 50f
3:54pm 1 3 mph 1014.1mb 48f
3:48pm 2 5 mph 1014.2mb 48f
3:42pm 2 5 mph 1014.3mb 48f
3:36pm 5 6 mph 1014.2mb 47f
3:30pm 5 6 mph 1014.3mb 47f
3:24pm 2 3 mph 1014.3mb 47f
3:18pm 1 3 mph 1014.3mb 47f
3:12pm 2 7 mph 1014.5mb 47f
3:06pm 6 7 mph 1014.5mb 46f
3:00pm 7 8 mph 1014.5mb 46f
2:54pm 6 7 mph 1014.6mb 46f
2:48pm 7 8 mph 1014.7mb 46f
2:42pm 5 8 mph 1014.7mb 46f
2:36pm 6 8 mph 1015mb 46f
2:30pm 5 8 mph 1015.1mb 46f
2:24pm 7 9 mph 1015.2mb 45f
2:18pm 7 9 mph 1015.2mb 45f
2:12pm 7 9 mph 1015.3mb 45f
2:06pm 8 10 mph 1015.4mb 45f
2:00pm 9 10 mph 1015.5mb 45f
1:54pm 6 8 mph 1015.7mb 45f
1:48pm 8 11 mph 1015.7mb 45f
1:42pm 10 13 mph 1015.7mb 44f
1:36pm 11 13 mph 1015.7mb 44f
1:30pm 10 11 mph 1015.8mb 44f
1:24pm 11 14 mph 1015.9mb 44f
1:12pm 13 15 mph 1015.9mb 44f
1:06pm 14 15 mph 1016mb 44f
1:00pm 11 15 mph 1015.9mb 44f
12:54pm 11 15 mph 1015.9mb 44f
12:48pm 11 16 mph 1016mb 44f
12:42pm 13 17 mph 1016.1mb 44f
12:36pm 16 18 mph 1016.2mb 44f
12:30pm 16 18 mph 1016.2mb 44f
12:24pm 16 18 mph 1016.1mb 44f
12:18pm 16 18 mph 1016.2mb 44f
12:12pm 15 17 mph 1016mb 44f
12:06pm 15 17 mph 1016mb 44f
12:00pm 14 16 mph 1015.9mb 43f
11:54am 14 15 mph 1015.9mb 43f
11:48am 14 15 mph 1015.9mb 43f
11:42am 14 15 mph 1015.8mb 43f
11:36am 14
mph
1015.8mb 43f
11:30am 13 14 mph 1015.7mb 43f
11:24am 13 14 mph 1015.7mb 43f
11:12am 9 15 mph 1015.6mb 43f
11:06am 13 15 mph 1015.6mb 43f
11:00am 14 15 mph 1015.6mb 43f
10:54am 14 16 mph 1015.5mb 43f
10:48am 15 16 mph 1015.5mb 43f
10:42am 15 17 mph 1015.5mb 43f
10:36am 14 15 mph 1015.4mb 43f
10:30am 13 14 mph 1015.4mb 43f
10:24am 10 13 mph 1015.3mb 43f
10:18am 10 13 mph 1015.3mb 43f
10:12am 9 11 mph 1015.5mb 44f
10:06am 7 9 mph 1015.5mb 44f
10:00am 7 9 mph 1015.5mb 44f
9:54am 6 8 mph 1015.5mb 44f
9:48am 6 9 mph 1015.3mb 44f
9:42am 7 9 mph 1015.3mb 44f
9:36am 5 8 mph 1015.2mb 44f
9:30am 6 8 mph 1015.1mb 44f
9:24am 8 10 mph 1015.2mb 44f
9:18am 9 11 mph 1015.1mb 44f
9:12am 9 10 mph 1015.1mb 44f
9:06am 10
mph
1015mb 44f
9:00am 7 9 mph 1014.9mb 45f
8:54am 3 6 mph 1014.9mb 45f
8:48am 2 3 mph 1014.8mb 45f
8:42am  -  mph 1014.6mb 45f
8:36am  -  2 mph 1014.5mb 45f
8:30am 2 3 mph 1014.3mb 45f
8:24am 1 3 mph 1014.4mb 44f
8:18am 3 5 mph 1014.5mb 44f
8:12am 3 5 mph 1014.4mb 44f
8:06am 3 5 mph 1014.5mb 44f
8:00am 3
mph
1014.3mb 44f
7:54am 2 6 mph 1014.2mb 44f
7:48am 6 7 mph 1014mb 44f
7:42am 5 6 mph 1013.9mb 44f
7:36am 5 6 mph 1014mb 44f
7:30am 5 7 mph 1014mb 44f
7:24am 5 6 mph 1014.1mb 44f
7:18am 3 5 mph 1014.1mb 44f
7:12am 3 5 mph 1014.2mb 44f
7:06am 2 3 mph 1014.1mb 44f
7:00am 1 3 mph 1014mb 44f
6:54am 1 2 mph 1014.1mb 44f
6:48am 2 3 mph 1014.1mb 44f
6:42am 1 3 mph 1014.2mb 44f
6:36am 2 5 mph 1014.2mb 44f
6:30am 5
mph
1014.2mb 44f
6:24am 5 6 mph 1014.2mb 44f
6:18am 6
mph
1014.2mb 44f
6:12am 6 7 mph 1014.3mb 44f
6:06am 6
mph
1014.3mb 44f
6:00am 5 6 mph 1014.4mb 44f
5:54am 5 6 mph 1014.4mb 44f
5:48am 5 6 mph 1014.5mb 44f
5:42am 6
mph
1014.4mb 44f
5:36am 6
mph
1014.3mb 44f
5:30am 5 6 mph 1014.3mb 44f
5:24am 5 6 mph 1014.4mb 44f
5:18am 5 6 mph 1014.5mb 44f
5:12am 6
mph
1014.4mb 44f
5:06am 6 7 mph 1014.4mb 44f
5:00am 6 7 mph 1014.6mb 44f
4:54am 6 8 mph 1014.7mb 44f
4:48am 7 8 mph 1014.7mb 44f
4:42am 8 10 mph 1014.7mb 44f
4:36am 8 10 mph 1014.5mb 44f
4:30am 7 8 mph 1014.7mb 44f
4:24am 7 9 mph 1014.8mb 44f
4:18am 7 8 mph 1015mb 44f
4:12am 7 8 mph 1015.1mb 44f
4:06am 7 8 mph 1015.1mb 44f
4:00am 7 8 mph 1015.1mb 44f
3:54am 7 8 mph 1015.1mb 44f
3:48am 8 9 mph 1015.2mb 44f
3:42am 9
mph
1015.3mb 44f
3:36am 8 9 mph 1015.4mb 44f
3:30am 7 8 mph 1015.5mb 44f
3:24am 7 8 mph 1015.6mb 44f
3:18am 7 8 mph 1015.7mb 44f
3:12am 6 7 mph 1015.8mb 44f
3:06am 6 7 mph 1016mb 44f
3:00am 6 8 mph 1016mb 44f
2:54am 8
mph
1016.2mb 44f
2:48am 7 8 mph 1016.2mb 44f
2:42am 7 9 mph 1016.2mb 44f
2:36am 8
mph
1016.2mb 44f
2:30am 7 8 mph 1016.4mb 44f
2:24am 8
mph
1016.3mb 44f
2:18am 6 7 mph 1016.5mb 44f
2:12am 7
mph
1016.5mb 44f
2:06am 6 8 mph 1016.4mb 44f
2:00am 7 8 mph 1016.6mb 44f
1:54am 7 8 mph 1016.8mb 44f
1:48am 7
mph
1016.8mb 44f
1:42am 6
mph
1017mb 44f
1:36am 6
mph
1017mb 44f
1:30am 5 6 mph 1017.2mb 44f
1:24am 5 6 mph 1017.2mb 45f
1:18am 6
mph
1017.3mb 45f
1:12am 6
mph
1017.4mb 45f
1:06am 6
mph
1017.3mb 45f
1:00am 6
mph
1017.2mb 45f
12:54am 6 7 mph 1017.2mb 45f
12:48am 7
mph
1017.2mb 45f
12:42am 7 8 mph 1017mb 45f
12:36am 8
mph
1017.2mb 45f
12:30am 7 8 mph 1017.1mb 46f
12:24am 8
mph
1017.2mb 45f
12:18am 8
mph
1017.2mb 45f
12:12am 7
mph
1017.3mb 45f
12:06am 7
mph
1017.4mb 45f
12:00am 6 7 mph 1017.5mb 46f
Mon 03/20 11:54pm 7
mph
1017.5mb 45f
11:48pm 7 8 mph 1017.6mb 46f
11:42pm 6
mph
1017.7mb 46f
11:36pm 6 7 mph 1017.8mb 46f
11:30pm 6
mph
1017.9mb 47f
11:24pm 6 7 mph 1018mb 47f
11:18pm 7 8 mph 1018.1mb 47f
11:12pm 8 9 mph 1018.1mb 47f
11:06pm 8 9 mph 1018.1mb 47f
11:00pm 8 9 mph 1018.1mb 46f
10:54pm 8 9 mph 1018.3mb 46f
10:48pm 8 9 mph 1018.2mb 46f
10:42pm 7 8 mph 1018.3mb 46f
10:36pm 8 9 mph 1018.2mb 46f
10:30pm 8 9 mph 1018.3mb 46f
10:24pm 7
mph
1018.3mb 47f
10:18pm 6
mph
1018.4mb 47f
10:12pm 6
mph
1018.6mb 47f
10:06pm 7
mph
1018.6mb 47f
10:00pm 6
mph
1018.6mb 46f
9:54pm 5
mph
1018.6mb 47f
9:48pm 5
mph
1018.5mb 47f
9:42pm 3 5 mph 1018.6mb 47f
9:36pm 3 5 mph 1018.6mb 47f
9:30pm 3
mph
1018.5mb 47f
9:24pm 3
mph
1018.6mb 47f
9:18pm 3
mph
1018.8mb 47f
9:12pm 2
mph
1018.8mb 47f
9:06pm 2 5 mph 1018.9mb 47f
9:00pm 3
mph
1018.8mb 47f
8:54pm 3 5 mph 1018.8mb 46f
8:48pm 5
mph
1018.7mb 46f
8:42pm 5
mph
1018.4mb 46f
8:36pm 5
mph
1018.4mb 46f
8:30pm 5 6 mph 1018.4mb 45f
8:24pm 6 7 mph 1018.2mb 45f
8:18pm 6 7 mph 1018.1mb 45f
8:12pm 3
mph
1018.1mb 46f
8:06pm 3 5 mph 1018.2mb 46f
8:00pm 5 6 mph 1018.1mb 46f
7:54pm 3 6 mph 1018.2mb 46f
7:48pm 5
mph
1018.3mb 46f
7:42pm 2
mph
1018.3mb 46f
7:36pm 2 3 mph 1018.2mb 46f
7:30pm 3
mph
1018.3mb 46f
7:24pm 2 3 mph 1018.4mb 47f
7:18pm  -  1 mph 1018.5mb 47f
7:12pm  -  mph 1018.5mb 47f
7:06pm  -  mph 1018.4mb 47f
7:00pm  -  2 mph 1018.4mb 47f
6:54pm 1
mph
1018.3mb 47f
6:48pm 1 2 mph 1018.3mb 47f
6:42pm 2 3 mph 1018.3mb 46f
6:36pm 3
mph
1018.4mb 46f
6:30pm 1 2 mph 1018.4mb 46f
6:24pm  -  1 mph 1018.5mb 46f
6:18pm  -  1 mph 1018.5mb 46f
6:12pm  -  2 mph 1018.5mb 46f
6:06pm  -  1 mph 1018.5mb 46f
6:00pm  -  2 mph 1018.6mb 45f
5:54pm 2 3 mph 1018.5mb 45f
5:48pm 2 3 mph 1018.5mb 45f
5:42pm 2
mph
1018.5mb 45f
5:36pm 1 3 mph 1018.5mb 45f
5:30pm 2 3 mph 1018.6mb 45f
5:24pm 2 3 mph 1018.7mb 45f
5:18pm 3 5 mph 1018.8mb 45f
5:12pm 3 5 mph 1018.9mb 45f
5:06pm 3 6 mph 1018.9mb 45f
5:00pm 3 5 mph 1018.9mb 45f
4:54pm 3 6 mph 1019mb 45f
4:48pm 5 6 mph 1019.2mb 44f
4:42pm 5 6 mph 1019.3mb 45f
4:36pm 5 6 mph 1019.4mb 45f
4:30pm 3 6 mph 1019.5mb 45f
4:24pm 5 7 mph 1019.6mb 45f
4:18pm 5 6 mph 1019.7mb 45f
4:12pm 6 7 mph 1019.7mb 45f
4:06pm 5 7 mph 1019.7mb 45f
4:00pm 6 7 mph 1019.9mb 44f
3:54pm 5 6 mph 1019.9mb 45f
3:48pm 5 7 mph 1019.9mb 44f
3:42pm 6 8 mph 1020mb 44f
3:36pm 6 8 mph 1020mb 44f
3:30pm 7 8 mph 1019.9mb 44f
3:24pm 5 6 mph 1019.8mb 44f
3:18pm 5 7 mph 1019.9mb 44f
3:12pm 6 7 mph 1020mb 44f
3:06pm 6 8 mph 1020.1mb 44f
3:00pm 7 8 mph 1020.3mb 44f
2:54pm 6 7 mph 1020.4mb 44f
2:48pm 5 8 mph 1020.5mb 44f
2:42pm 7 8 mph 1020.6mb 43f
2:36pm 8 9 mph 1020.6mb 43f
2:30pm 7 9 mph 1020.6mb 43f
2:24pm 7 8 mph 1020.9mb 43f
2:18pm 7 8 mph 1021mb 43f
2:12pm 6 8 mph 1021.2mb 43f
2:06pm 8 9 mph 1021.3mb 42f
2:00pm 8 9 mph 1021.4mb 42f
1:54pm 9 10 mph 1021.5mb 42f
1:48pm 9 10 mph 1021.7mb 42f
1:42pm 8 10 mph 1021.8mb 42f
1:36pm 8 9 mph 1021.9mb 42f
1:30pm 7 9 mph 1022mb 42f
1:24pm 7 8 mph 1021.9mb 42f
1:18pm 7 8 mph 1021.9mb 42f
1:12pm 7 8 mph 1022mb 42f
1:06pm 7 9 mph 1022.1mb 42f
1:00pm 8 9 mph 1022.3mb 42f
12:54pm 7 9 mph 1022.3mb 42f
12:48pm 8 9 mph 1022.3mb 41f
12:42pm 7 10 mph 1022.4mb 41f
12:36pm 8 10 mph 1022.5mb 41f
12:30pm 8 10 mph 1022.8mb 41f